Terminal Aerodrome Forecast
Issued by NWS

Current Version | Previous Version | Graphics & Text | Print | Product List | Glossary On
Versions: 1 2 3 4 5 6 7 8 9 10 11 12 13 14 15 16 17 18 19 20 21 22 23 24 25 26 27 28 29 30 31 32 33 34 35
000
FTUS41 KRNK 020524
TAFLWB
TAF
KLWB 020524Z 0206/0306 00000KT 1/4SM FG OVC001
      TEMPO 0207/0211 3SM BR SCT005
     FM021300 00000KT P6SM SCT015
     FM021700 VRB03KT P6SM VCSH BKN040
     FM030000 00000KT P6SM SCT080=

USA.gov is the U.S. government's official web portal to all federal, state and local government web resources and services.